Time;durP1;ratioP1;P1;durP2;ratioP2;P2;SDS_P1;SDS_P2;PMS_P1;PMS_P2;Temp;Humidity;BMP_temperature;BMP_pressure;BME280_temperature;BME280_humidity;BME280_pressure;Samples;Min_cycle;Max_cycle;Signal;HPM_P1;HPM_P2
2022/09/16 00:00:42;;;;;;;;;0.67;0.67;;;;;21.61;72.53;100233.69;4976132;28;45534;-74
2022/09/16 00:03:08;;;;;;;;;1.00;1.00;;;;;21.60;72.40;100229.25;4977238;28;45326;-74
2022/09/16 00:05:39;;;;;;;;;1.00;1.00;;;;;21.55;72.84;100244.44;4976772;28;46363;-75
2022/09/16 00:08:05;;;;;;;;;1.33;1.00;;;;;21.55;71.86;100243.56;4970505;28;45432;-72
2022/09/16 00:10:31;;;;;;;;;0.00;0.00;;;;;21.45;73.33;100243.75;4977051;28;45633;-74
2022/09/16 00:12:56;;;;;;;;;1.00;1.00;;;;;21.34;73.34;100229.75;4976897;28;45428;-70
2022/09/16 00:15:22;;;;;;;;;2.33;1.00;;;;;21.30;73.73;100224.53;4976619;28;46426;-68
2022/09/16 00:17:48;;;;;;;;;0.00;0.00;;;;;21.15;73.86;100218.63;4976721;28;45411;-70
2022/09/16 00:20:13;;;;;;;;;1.00;1.00;;;;;21.14;74.06;100224.81;4977293;28;45423;-70
2022/09/16 00:22:39;;;;;;;;;1.00;0.33;;;;;21.08;74.24;100216.09;4976753;28;45452;-73
2022/09/16 00:25:05;;;;;;;;;1.00;1.00;;;;;21.05;75.75;100232.97;4976575;28;45449;-75
2022/09/16 00:27:30;;;;;;;;;1.00;1.00;;;;;20.89;75.43;100215.53;4976742;28;45594;-74
2022/09/16 00:29:56;;;;;;;;;0.00;0.00;;;;;20.96;74.71;100228.69;4976653;28;45652;-71
2022/09/16 00:32:23;;;;;;;;;2.00;1.00;;;;;20.98;73.93;100215.38;4976423;28;45637;-72
2022/09/16 00:34:49;;;;;;;;;1.00;1.00;;;;;20.94;74.24;100219.00;4976655;28;45369;-73
2022/09/16 00:37:15;;;;;;;;;1.00;1.00;;;;;20.75;75.12;100203.41;4976641;28;45516;-74
2022/09/16 00:39:41;;;;;;;;;1.00;1.00;;;;;20.84;74.30;100223.59;4975525;28;45399;-69
2022/09/16 00:42:10;;;;;;;;;1.00;1.00;;;;;20.83;74.45;100225.38;4975078;28;45535;-73
2022/09/16 00:45:02;;;;;;;;;1.00;1.00;;;;;20.96;74.91;100241.97;4976235;28;46270;-73
2022/09/16 00:47:33;;;;;;;;;1.00;1.00;;;;;20.95;74.07;100236.66;4974199;28;45468;-73
2022/09/16 00:50:08;;;;;;;;;1.00;1.00;;;;;20.98;73.78;100245.47;4975866;28;45445;-74
2022/09/16 00:52:34;;;;;;;;;1.00;1.00;;;;;20.01;74.07;100079.91;4975041;28;45353;-69
2022/09/16 00:55:04;;;;;;;;;1.00;1.00;;;;;20.83;74.56;100219.16;4976089;28;46280;-73
2022/09/16 00:57:29;;;;;;;;;1.33;1.33;;;;;20.82;75.18;100220.09;4974590;28;45521;-69
2022/09/16 00:59:56;;;;;;;;;1.00;1.00;;;;;20.65;75.45;100199.13;4976439;28;45542;-74
2022/09/16 01:02:23;;;;;;;;;1.00;1.00;;;;;20.75;75.58;100219.34;4976353;28;45762;-72
2022/09/16 01:05:05;;;;;;;;;1.33;1.33;;;;;20.74;74.97;100222.00;4975975;28;45613;-70
2022/09/16 01:07:46;;;;;;;;;1.00;1.00;;;;;20.81;74.47;100235.16;4974404;28;45384;-70
2022/09/16 01:10:24;;;;;;;;;1.33;1.00;;;;;20.81;75.78;100236.91;4974661;28;45497;-69
2022/09/16 01:13:01;;;;;;;;;2.67;2.00;;;;;20.66;75.18;100214.16;4973999;28;45422;-70
2022/09/16 01:16:00;;;;;;;;;2.00;1.00;;;;;20.79;74.91;100231.66;4973534;28;45516;-72
2022/09/16 01:18:52;;;;;;;;;1.00;1.00;;;;;20.84;75.53;100234.22;4969772;28;45581;-70
2022/09/16 01:21:38;;;;;;;;;0.00;0.00;;;;;20.80;75.02;100222.75;4975006;28;45577;-73
2022/09/16 01:24:09;;;;;;;;;2.00;2.00;;;;;20.88;74.94;100235.91;4976004;28;45427;-69
2022/09/16 01:27:17;;;;;;;;;2.00;2.00;;;;;20.91;74.75;100224.34;4975794;28;45706;-73
2022/09/16 01:29:42;;;;;;;;;1.33;1.33;;;;;20.95;74.24;100224.28;4975742;28;45231;-73
2022/09/16 01:32:35;;;;;;;;;1.00;1.00;;;;;20.84;74.44;100213.84;4975990;28;45215;-73
2022/09/16 01:35:14;;;;;;;;;1.00;1.00;;;;;20.88;74.34;100224.41;4975418;28;45516;-74
2022/09/16 01:37:45;;;;;;;;;2.00;2.00;;;;;20.81;75.03;100213.00;4975421;28;46302;-70
2022/09/16 01:40:19;;;;;;;;;2.00;2.00;;;;;20.75;75.63;100216.69;4973722;28;45558;-69
2022/09/16 01:42:56;;;;;;;;;2.00;2.00;;;;;20.74;75.46;100211.38;4974762;28;45410;-73
2022/09/16 01:45:33;;;;;;;;;1.33;1.33;;;;;20.68;76.22;100212.38;4976084;28;46348;-69
2022/09/16 01:48:38;;;;;;;;;2.00;1.00;;;;;20.66;75.29;100207.06;4973914;28;46906;-74
2022/09/16 01:51:13;;;;;;;;;2.00;2.00;;;;;20.69;75.65;100214.13;4975314;28;45377;-75
2022/09/16 01:53:58;;;;;;;;;1.00;1.00;;;;;20.18;75.51;100122.06;4975640;28;45478;-73
2022/09/16 01:56:38;;;;;;;;;2.67;1.67;;;;;20.60;75.94;100201.00;4973903;28;45508;-73
2022/09/16 01:59:14;;;;;;;;;1.00;1.00;;;;;20.77;75.64;100216.63;4975214;28;45550;-70
2022/09/16 02:02:28;;;;;;;;;2.00;1.00;;;;;20.71;75.15;100211.44;4977649;28;45447;-73
2022/09/16 02:04:56;;;;;;;;;1.67;1.67;;;;;20.55;75.38;100194.84;4926774;28;45611;-69
2022/09/16 02:07:31;;;;;;;;;1.00;1.00;;;;;20.58;76.27;100201.00;4965933;28;45419;-70
2022/09/16 02:10:12;;;;;;;;;1.00;1.00;;;;;20.58;75.48;100190.38;4969330;28;45458;-74
2022/09/16 02:12:43;;;;;;;;;1.00;1.00;;;;;20.70;75.41;100188.44;4977831;28;45713;-70
2022/09/16 02:15:17;;;;;;;;;2.33;2.00;;;;;20.74;75.44;100184.84;4976583;28;45266;-72
2022/09/16 02:17:54;;;;;;;;;2.00;2.00;;;;;20.81;75.55;100184.72;4979126;28;45903;-75
2022/09/16 02:20:24;;;;;;;;;3.33;2.33;;;;;20.84;75.25;100189.94;4976994;28;46173;-73
2022/09/16 02:23:14;;;;;;;;;1.00;1.00;;;;;20.79;75.24;100170.59;4976311;28;45360;-72
2022/09/16 02:25:43;;;;;;;;;2.00;1.00;;;;;20.84;75.22;100178.47;4977332;28;45512;-74
2022/09/16 02:28:14;;;;;;;;;2.00;1.00;;;;;20.79;74.79;100167.03;4976432;28;45441;-73
2022/09/16 02:30:48;;;;;;;;;1.67;1.67;;;;;20.95;74.27;100184.47;4978192;28;46699;-73
2022/09/16 02:33:16;;;;;;;;;2.00;1.33;;;;;20.96;74.62;100177.38;4975433;28;45736;-72
2022/09/16 02:35:47;;;;;;;;;3.00;3.00;;;;;20.94;74.66;100176.50;4978438;28;45449;-74
2022/09/16 02:38:37;;;;;;;;;2.33;2.00;;;;;20.90;74.52;100162.41;4978668;28;45390;-70
2022/09/16 02:41:03;;;;;;;;;2.00;2.00;;;;;20.89;74.67;100160.69;4978313;28;46256;-69
2022/09/16 02:43:30;;;;;;;;;2.00;2.00;;;;;20.97;74.57;100171.13;4979568;28;45432;-70
2022/09/16 02:46:05;;;;;;;;;3.00;3.00;;;;;21.02;74.44;100190.53;4979828;28;45364;-69
2022/09/16 02:48:44;;;;;;;;;2.00;2.00;;;;;21.06;74.47;100184.25;4978502;28;45986;-69
2022/09/16 02:51:15;;;;;;;;;3.00;3.00;;;;;21.05;74.08;100188.69;4977454;28;45493;-69
2022/09/16 02:53:56;;;;;;;;;3.00;2.00;;;;;21.00;75.23;100192.34;4979573;28;45431;-69
2022/09/16 02:56:40;;;;;;;;;3.00;3.00;;;;;20.85;75.11;100173.13;4978396;28;45534;-69
2022/09/16 02:59:10;;;;;;;;;3.00;2.00;;;;;20.97;74.83;100187.06;4979657;28;45459;-69
2022/09/16 03:01:44;;;;;;;;;2.00;1.33;;;;;21.03;74.51;100186.97;4979431;28;45514;-70
2022/09/16 03:04:14;;;;;;;;;1.00;1.00;;;;;21.00;73.97;100174.59;4979574;28;45498;-69
2022/09/16 03:06:40;;;;;;;;;3.00;3.00;;;;;20.83;74.05;100139.53;4979668;28;45462;-69
2022/09/16 03:09:09;;;;;;;;;1.00;1.00;;;;;21.07;73.63;100175.38;4979443;28;45613;-69
2022/09/16 03:11:52;;;;;;;;;2.00;2.00;;;;;21.12;73.10;100183.25;4978936;28;45412;-70
2022/09/16 03:14:39;;;;;;;;;2.00;2.00;;;;;21.13;73.08;100180.59;4979666;28;45415;-69
2022/09/16 03:17:32;;;;;;;;;2.33;2.33;;;;;21.08;74.18;100179.78;4977941;28;45417;-69
2022/09/16 03:20:12;;;;;;;;;1.33;1.33;;;;;21.11;73.13;100177.09;4979397;28;45413;-69
2022/09/16 03:23:19;;;;;;;;;1.67;1.67;;;;;21.13;72.85;100177.03;4977743;28;46746;-69
2022/09/16 03:26:22;;;;;;;;;4.00;2.00;;;;;21.14;73.85;100171.69;4979451;28;45226;-70
2022/09/16 03:29:00;;;;;;;;;1.67;1.67;;;;;21.15;73.76;100189.41;4978232;28;45638;-69
2022/09/16 03:31:28;;;;;;;;;1.00;1.00;;;;;21.17;73.72;100181.38;4979569;28;45257;-69
2022/09/16 03:34:02;;;;;;;;;2.00;2.00;;;;;21.15;73.71;100185.84;4978273;28;45503;-70
2022/09/16 03:36:33;;;;;;;;;3.00;3.00;;;;;21.18;73.75;100188.44;4978804;28;45495;-69
2022/09/16 03:39:01;;;;;;;;;2.00;2.00;;;;;21.20;74.17;100182.19;4978292;28;45258;-69
2022/09/16 03:41:30;;;;;;;;;2.33;2.00;;;;;21.08;74.20;100158.53;4977448;28;45447;-68
2022/09/16 03:43:57;;;;;;;;;2.00;2.00;;;;;21.11;73.82;100185.06;4976865;28;46198;-69
2022/09/16 03:46:25;;;;;;;;;2.00;2.00;;;;;20.94;73.88;100153.50;4977037;28;45547;-69
2022/09/16 03:48:50;;;;;;;;;2.00;2.00;;;;;20.93;73.28;100157.06;4977542;28;45580;-68
2022/09/16 03:51:16;;;;;;;;;2.00;2.00;;;;;20.92;73.12;100157.09;4975043;28;45441;-69
2022/09/16 03:53:42;;;;;;;;;2.00;2.00;;;;;20.80;73.21;100143.13;4976869;28;45379;-68
2022/09/16 03:56:07;;;;;;;;;2.33;2.00;;;;;21.01;73.73;100175.50;4976749;28;45352;-70
2022/09/16 03:58:33;;;;;;;;;4.00;3.00;;;;;20.93;74.60;100159.72;4977202;28;45365;-69
2022/09/16 04:00:59;;;;;;;;;2.67;2.67;;;;;20.93;74.49;100164.13;4977249;28;45543;-71
2022/09/16 04:03:24;;;;;;;;;1.00;1.00;;;;;20.98;74.04;100171.09;4976868;28;46224;-69
2022/09/16 04:05:53;;;;;;;;;2.00;2.00;;;;;20.97;73.84;100165.81;4978375;28;45246;-69
2022/09/16 04:08:19;;;;;;;;;2.33;2.33;;;;;20.96;74.09;100169.41;4978652;28;45471;-75
2022/09/16 04:11:06;;;;;;;;;2.00;2.00;;;;;21.05;73.99;100182.50;4978344;28;45571;-70
2022/09/16 04:13:34;;;;;;;;;3.00;2.33;;;;;21.05;74.13;100185.16;4978342;28;45485;-72
2022/09/16 04:16:01;;;;;;;;;2.00;2.00;;;;;20.80;75.62;100177.63;4976965;28;45329;-74
2022/09/16 04:21:00;;;;;;;;;3.00;3.00;;;;;20.83;74.99;100190.88;4996675;28;46472;-75
2022/09/16 04:23:27;;;;;;;;;4.00;3.67;;;;;20.85;75.54;100185.53;4997026;28;46513;-69
2022/09/16 04:25:58;;;;;;;;;2.33;2.00;;;;;20.88;75.15;100188.13;4997803;28;45462;-71
2022/09/16 04:28:24;;;;;;;;;5.00;3.00;;;;;20.82;75.45;100190.88;4998155;28;45236;-68
2022/09/16 04:30:49;;;;;;;;;3.00;3.00;;;;;20.70;75.53;100180.50;4999671;28;45621;-71
2022/09/16 04:33:15;;;;;;;;;3.00;2.00;;;;;20.54;75.45;100150.66;4962723;28;45989;-67
2022/09/16 04:35:41;;;;;;;;;2.67;2.00;;;;;20.77;75.36;100183.00;4975301;28;45319;-68
2022/09/16 04:38:06;;;;;;;;;2.00;2.00;;;;;20.71;75.77;100185.78;4976112;28;45497;-68
2022/09/16 04:40:32;;;;;;;;;2.33;2.33;;;;;20.71;75.91;100184.88;4976507;28;45419;-68
2022/09/16 04:42:57;;;;;;;;;2.00;2.00;;;;;20.74;76.42;100174.22;4976626;28;45531;-70
2022/09/16 04:45:23;;;;;;;;;4.00;3.33;;;;;20.74;77.08;100166.25;4977681;28;45296;-69
2022/09/16 04:47:55;;;;;;;;;3.00;3.00;;;;;20.78;76.32;100175.91;4978344;28;45515;-68
2022/09/16 04:50:21;;;;;;;;;2.00;2.00;;;;;20.78;75.42;100171.47;4978427;28;45360;-70
2022/09/16 04:52:46;;;;;;;;;3.00;2.33;;;;;20.78;76.64;100179.44;4977945;28;46118;-70
2022/09/16 04:55:12;;;;;;;;;4.33;2.00;;;;;20.74;76.34;100176.88;4977825;28;45383;-73
2022/09/16 04:57:37;;;;;;;;;2.00;2.00;;;;;20.76;76.20;100167.97;4977355;28;45415;-69
2022/09/16 05:00:03;;;;;;;;;2.00;2.00;;;;;20.71;76.29;100164.53;4977624;28;45471;-69
2022/09/16 05:02:29;;;;;;;;;2.67;2.67;;;;;20.78;76.51;100182.09;4977857;28;45975;-70
2022/09/16 05:04:55;;;;;;;;;2.00;2.00;;;;;20.76;76.03;100191.88;4977874;28;45506;-69
2022/09/16 05:07:20;;;;;;;;;3.33;3.33;;;;;20.82;76.22;100186.44;4977984;28;45403;-69
2022/09/16 05:09:46;;;;;;;;;2.00;2.00;;;;;20.80;76.14;100184.72;4978126;28;45205;-70
2022/09/16 05:12:11;;;;;;;;;2.67;2.00;;;;;20.73;76.92;100183.97;4977436;28;46389;-69
2022/09/16 05:14:37;;;;;;;;;3.00;3.00;;;;;20.70;76.43;100191.97;4977596;28;45488;-69
2022/09/16 05:17:02;;;;;;;;;3.00;2.00;;;;;20.65;75.53;100191.16;4977708;28;45501;-69
2022/09/16 05:19:28;;;;;;;;;2.00;2.00;;;;;20.34;76.71;100137.72;4977878;28;45552;-69
2022/09/16 05:21:54;;;;;;;;;4.00;3.00;;;;;20.65;77.17;100193.81;4977670;28;45527;-69
2022/09/16 05:24:19;;;;;;;;;3.00;3.00;;;;;20.53;76.84;100172.78;4977625;28;45478;-69
2022/09/16 05:26:45;;;;;;;;;3.00;3.00;;;;;20.73;77.21;100207.88;4977699;28;45317;-69
2022/09/16 05:29:16;;;;;;;;;3.00;3.00;;;;;20.81;77.22;100207.69;4977746;28;45395;-69
2022/09/16 05:31:43;;;;;;;;;3.00;3.00;;;;;20.81;76.11;100197.97;4977305;28;45620;-69
2022/09/16 05:34:21;;;;;;;;;3.00;3.00;;;;;20.73;76.43;100194.59;4977546;28;45311;-69
2022/09/16 05:36:49;;;;;;;;;5.00;5.00;;;;;20.84;76.30;100210.31;4981017;28;45348;-69
2022/09/16 05:39:17;;;;;;;;;5.00;5.00;;;;;20.83;76.63;100214.75;4981033;28;45638;-69
2022/09/16 05:41:43;;;;;;;;;4.67;4.67;;;;;20.75;77.11;100211.38;4980598;28;46461;-69
2022/09/16 05:44:09;;;;;;;;;5.33;5.33;;;;;20.68;76.66;100214.16;4980715;28;45631;-69
2022/09/16 05:46:35;;;;;;;;;4.67;4.00;;;;;20.70;77.13;100226.47;4980854;28;45396;-68
2022/09/16 05:49:01;;;;;;;;;5.00;3.33;;;;;20.74;76.95;100232.63;4981043;28;45538;-69
2022/09/16 05:51:27;;;;;;;;;3.67;3.67;;;;;20.66;77.21;100214.16;4980653;28;45375;-70
2022/09/16 05:53:54;;;;;;;;;2.00;2.00;;;;;20.72;77.36;100224.69;4980956;28;45442;-69
2022/09/16 05:56:25;;;;;;;;;3.00;3.00;;;;;20.74;77.53;100230.84;4980611;28;45435;-69
2022/09/16 05:58:56;;;;;;;;;4.00;3.00;;;;;20.64;77.41;100224.81;4979390;28;45336;-72
2022/09/16 06:01:24;;;;;;;;;4.00;3.00;;;;;20.71;77.90;100230.00;4980399;28;45980;-69
2022/09/16 06:03:51;;;;;;;;;2.33;2.33;;;;;20.82;77.05;100250.16;4980458;28;45435;-69
2022/09/16 06:06:27;;;;;;;;;3.00;3.00;;;;;20.81;77.38;100245.78;4980535;28;45431;-69
2022/09/16 06:08:54;;;;;;;;;3.00;3.00;;;;;20.82;77.26;100249.28;4981038;28;45276;-69
2022/09/16 06:11:20;;;;;;;;;3.33;3.00;;;;;20.43;76.44;100182.66;4980365;28;45281;-69
2022/09/16 06:13:46;;;;;;;;;2.67;2.67;;;;;20.80;76.49;100243.13;4980232;28;45450;-69
2022/09/16 06:16:13;;;;;;;;;3.00;3.00;;;;;20.81;78.08;100255.50;4980536;28;45239;-69
2022/09/16 06:18:39;;;;;;;;;4.00;3.67;;;;;20.81;77.50;100261.69;4980402;28;45833;-69
2022/09/16 06:21:09;;;;;;;;;3.00;3.00;;;;;20.83;77.20;100256.34;4980082;28;45531;-70
2022/09/16 06:23:36;;;;;;;;;3.67;3.67;;;;;20.89;77.01;100260.69;4979999;28;45461;-69
2022/09/16 06:26:05;;;;;;;;;5.33;4.00;;;;;20.78;76.94;100253.78;4980299;28;45779;-69
2022/09/16 06:28:31;;;;;;;;;4.00;4.00;;;;;20.90;76.86;100268.63;4980329;28;45324;-69
2022/09/16 06:31:06;;;;;;;;;5.00;4.33;;;;;20.84;76.94;100242.19;4980251;28;46107;-69
2022/09/16 06:33:33;;;;;;;;;5.67;5.33;;;;;21.11;76.68;100275.34;4979724;28;45356;-69
2022/09/16 06:36:05;;;;;;;;;3.00;3.00;;;;;21.17;75.89;100261.06;4980062;28;45277;-69
2022/09/16 06:38:31;;;;;;;;;2.00;2.00;;;;;21.27;75.90;100270.63;4980010;28;45570;-69
2022/09/16 06:41:01;;;;;;;;;5.00;4.00;;;;;21.26;75.90;100244.97;4980019;28;45440;-69
2022/09/16 06:43:27;;;;;;;;;4.00;4.00;;;;;21.46;74.45;100265.88;4980317;28;45258;-68
2022/09/16 06:46:04;;;;;;;;;6.00;4.33;;;;;21.55;74.73;100267.50;4979559;28;45493;-69
2022/09/16 06:48:32;;;;;;;;;3.00;3.00;;;;;21.42;75.49;100243.75;4980228;28;45400;-69
2022/09/16 06:51:06;;;;;;;;;4.67;4.00;;;;;21.41;74.10;100244.69;4979796;28;46473;-69
2022/09/16 06:53:32;;;;;;;;;5.00;5.00;;;;;21.55;75.14;100275.47;4979634;28;45296;-69
2022/09/16 06:56:03;;;;;;;;;7.33;5.67;;;;;21.52;74.31;100263.09;4980053;28;45278;-69
2022/09/16 06:58:34;;;;;;;;;7.67;6.00;;;;;21.42;74.67;100267.66;4979846;28;45462;-69
2022/09/16 07:01:11;;;;;;;;;2.33;2.33;;;;;21.40;74.70;100272.13;4979648;28;45614;-69
2022/09/16 07:03:38;;;;;;;;;4.33;4.33;;;;;21.49;75.26;100286.19;4979552;28;45261;-69
2022/09/16 07:06:04;;;;;;;;;5.33;4.67;;;;;21.42;75.05;100266.81;4979659;28;45369;-69
2022/09/16 07:08:31;;;;;;;;;3.00;3.00;;;;;21.49;75.00;100286.19;4979927;28;45370;-69
2022/09/16 07:11:02;;;;;;;;;3.00;3.00;;;;;21.52;75.00;100294.97;4979600;28;45430;-68
2022/09/16 07:13:28;;;;;;;;;3.00;3.00;;;;;21.43;74.73;100276.56;4979409;28;45281;-69
2022/09/16 07:15:59;;;;;;;;;5.00;4.00;;;;;21.34;75.38;100263.41;4979262;28;45439;-69
2022/09/16 07:18:24;;;;;;;;;3.00;3.00;;;;;21.38;74.92;100287.25;4979523;28;45562;-69
2022/09/16 07:20:50;;;;;;;;;8.67;7.67;;;;;21.36;75.23;100290.84;4978986;28;45363;-73
2022/09/16 07:23:15;;;;;;;;;9.00;8.00;;;;;21.38;75.88;100283.72;4979244;28;45471;-71
2022/09/16 07:25:41;;;;;;;;;5.00;5.00;;;;;21.50;75.38;100287.94;4977980;28;45446;-69
2022/09/16 07:28:06;;;;;;;;;7.00;7.00;;;;;21.78;74.69;100306.91;4979450;28;45269;-70
2022/09/16 07:30:33;;;;;;;;;6.00;6.00;;;;;21.92;74.07;100301.28;4979046;28;46531;-70
2022/09/16 07:32:59;;;;;;;;;4.00;4.00;;;;;22.03;73.23;100316.13;4979243;28;45262;-72
2022/09/16 07:35:25;;;;;;;;;3.00;3.00;;;;;22.05;72.85;100314.31;4979032;28;45412;-69
2022/09/16 07:37:50;;;;;;;;;2.00;2.00;;;;;22.05;72.04;100313.44;4979165;28;45491;-69
2022/09/16 07:40:16;;;;;;;;;7.67;7.00;;;;;22.11;71.09;100301.81;4978716;28;45475;-69
2022/09/16 07:42:42;;;;;;;;;3.67;3.00;;;;;22.32;70.46;100309.34;4979058;28;45454;-69
2022/09/16 07:45:08;;;;;;;;;3.67;3.33;;;;;22.47;70.82;100324.09;4978748;28;45404;-69
2022/09/16 07:47:33;;;;;;;;;2.67;2.33;;;;;22.52;69.85;100323.97;4979067;28;45308;-69
2022/09/16 07:49:59;;;;;;;;;3.00;3.00;;;;;22.35;70.25;100295.97;4978895;28;46007;-69
2022/09/16 07:52:28;;;;;;;;;4.67;3.67;;;;;22.54;70.21;100331.03;4978773;28;45498;-69
2022/09/16 07:54:55;;;;;;;;;3.33;3.00;;;;;22.39;70.14;100318.94;4978722;28;45202;-69
2022/09/16 07:57:21;;;;;;;;;3.00;2.33;;;;;22.37;70.37;100330.53;4978360;28;45435;-69
2022/09/16 07:59:47;;;;;;;;;3.00;2.67;;;;;22.28;70.53;100330.72;4977409;28;45494;-69
2022/09/16 08:02:15;;;;;;;;;2.00;2.00;;;;;21.60;70.94;100231.91;4978278;28;45574;-69
2022/09/16 08:04:41;;;;;;;;;4.33;3.00;;;;;22.24;71.81;100332.56;4978664;28;45399;-70
2022/09/16 08:07:07;;;;;;;;;5.00;5.00;;;;;22.32;71.59;100338.63;4978651;28;45478;-69
2022/09/16 08:09:32;;;;;;;;;3.00;3.00;;;;;22.37;71.24;100343.84;4978182;28;45544;-69
2022/09/16 08:12:01;;;;;;;;;3.00;3.00;;;;;22.45;70.86;100344.53;4978383;28;45332;-69
2022/09/16 08:14:27;;;;;;;;;3.00;3.00;;;;;22.41;69.80;100333.06;4978396;28;45420;-69
2022/09/16 08:16:52;;;;;;;;;3.67;3.00;;;;;22.56;69.81;100346.94;4978531;28;45413;-69
2022/09/16 08:19:19;;;;;;;;;4.00;4.00;;;;;22.55;69.01;100339.88;4978051;28;45641;-69
2022/09/16 08:21:45;;;;;;;;;5.00;4.00;;;;;22.50;68.77;100317.81;4977943;28;45489;-70
2022/09/16 08:24:11;;;;;;;;;5.00;3.00;;;;;22.64;68.55;100344.97;4978018;28;45356;-69
2022/09/16 08:26:37;;;;;;;;;4.33;4.00;;;;;22.62;67.91;100328.16;4978263;28;45499;-69
2022/09/16 08:29:02;;;;;;;;;3.00;2.00;;;;;22.70;65.53;100359.94;4978438;28;45302;-69
2022/09/16 08:31:39;;;;;;;;;4.67;4.00;;;;;22.34;68.14;100357.19;5111699;27;45439;-69
2022/09/16 08:34:05;;;;;;;;;3.00;3.00;;;;;22.27;67.45;100350.28;5094754;27;45506;-70
2022/09/16 08:36:33;;;;;;;;;4.00;4.00;;;;;22.44;67.46;100359.63;5094791;27;45646;-69
2022/09/16 08:38:59;;;;;;;;;2.67;2.67;;;;;22.42;67.60;100349.91;5094669;27;45377;-69
2022/09/16 08:41:46;;;;;;;;;4.00;4.00;;;;;22.54;68.06;100356.75;5093895;27;45316;-69
2022/09/16 08:44:31;;;;;;;;;3.00;2.33;;;;;22.75;68.18;100371.38;5094228;27;45388;-69
2022/09/16 08:47:05;;;;;;;;;5.00;4.33;;;;;22.84;66.79;100361.38;5094106;27;45352;-70
2022/09/16 08:49:43;;;;;;;;;5.00;4.67;;;;;23.07;65.68;100375.97;5092836;27;45603;-70
2022/09/16 08:52:31;;;;;;;;;5.00;5.00;;;;;23.22;65.21;100385.41;5093834;27;45472;-70
2022/09/16 08:55:18;;;;;;;;;3.33;2.67;;;;;23.79;62.90;100383.94;5093684;27;45494;-70
2022/09/16 08:58:03;;;;;;;;;4.00;4.00;;;;;24.50;62.17;100380.16;5093917;27;45528;-71
2022/09/16 09:00:30;;;;;;;;;5.67;4.00;;;;;25.07;61.04;100386.41;5092837;27;45612;-69
2022/09/16 09:03:24;;;;;;;;;7.00;6.33;;;;;25.22;58.52;100390.38;5093638;27;46580;-69
2022/09/16 09:05:55;;;;;;;;;9.33;8.67;;;;;25.19;59.22;100386.00;5093786;27;45238;-69
2022/09/16 09:08:39;;;;;;;;;6.67;5.67;;;;;25.20;58.25;100393.06;5093670;27;45302;-70
2022/09/16 09:11:28;;;;;;;;;3.00;3.00;;;;;25.26;57.64;100391.16;5093889;27;45489;-70
2022/09/16 09:14:28;;;;;;;;;5.00;4.00;;;;;25.24;56.44;100393.88;5093290;27;45483;-70
2022/09/16 09:17:40;;;;;;;;;4.00;3.33;;;;;25.75;56.28;100390.34;5092063;27;45580;-70
2022/09/16 09:20:15;;;;;;;;;6.00;4.67;;;;;26.05;55.55;100390.22;5082309;27;45540;-70
2022/09/16 09:23:00;;;;;;;;;5.67;5.00;;;;;26.90;53.32;100392.34;5091864;27;46061;-70
2022/09/16 09:25:53;;;;;;;;;4.00;4.00;;;;;27.76;50.51;100386.97;5092814;27;45644;-70
2022/09/16 09:28:54;;;;;;;;;5.00;4.00;;;;;28.06;48.94;100396.44;5093222;27;46066;-70
2022/09/16 09:31:25;;;;;;;;;3.00;2.67;;;;;28.43;50.35;100400.09;5080203;27;45406;-71
2022/09/16 09:34:28;;;;;;;;;5.00;4.00;;;;;28.27;50.49;100411.59;5091755;27;45418;-70
2022/09/16 09:37:05;;;;;;;;;6.00;5.33;;;;;28.36;47.76;100403.09;5092659;27;45486;-71
2022/09/16 09:39:50;;;;;;;;;4.33;3.00;;;;;29.31;46.50;100396.81;5092829;27;45428;-71
2022/09/16 09:42:27;;;;;;;;;4.00;4.00;;;;;30.16;46.39;100384.34;5099397;27;45390;-71
2022/09/16 09:45:12;;;;;;;;;7.00;5.00;;;;;29.91;46.09;100389.25;5079514;27;45317;-72
2022/09/16 09:47:47;;;;;;;;;3.67;3.67;;;;;29.38;45.17;100392.00;5078482;28;45441;-71
2022/09/16 09:50:21;;;;;;;;;3.33;3.33;;;;;29.51;45.74;100396.69;5078829;28;45530;-71
2022/09/16 09:52:53;;;;;;;;;3.67;3.67;;;;;29.51;44.95;100380.53;5079423;28;45393;-72
2022/09/16 09:55:21;;;;;;;;;5.00;4.67;;;;;29.61;43.80;100383.63;5079616;28;45294;-71
2022/09/16 09:57:55;;;;;;;;;3.33;3.33;;;;;29.93;44.65;100391.84;5078337;28;46031;-71
2022/09/16 10:00:21;;;;;;;;;4.67;4.00;;;;;30.17;44.77;100389.66;5078504;27;46013;-71
2022/09/16 10:02:47;;;;;;;;;5.00;5.00;;;;;31.12;43.09;100397.00;5078740;27;46117;-72
2022/09/16 10:05:27;;;;;;;;;6.33;4.67;;;;;30.70;42.83;100391.25;5079152;27;45480;-71
2022/09/16 10:08:01;;;;;;;;;4.67;4.33;;;;;30.23;43.19;100393.84;5079041;28;45722;-73
2022/09/16 10:10:31;;;;;;;;;6.00;5.00;;;;;31.10;42.02;100390.81;5079109;27;45409;-71
2022/09/16 10:13:08;;;;;;;;;5.33;4.33;;;;;32.11;40.00;100389.28;5077546;28;45484;-71
2022/09/16 10:15:33;;;;;;;;;3.00;3.00;;;;;32.77;38.11;100382.41;5077483;28;45470;-71
2022/09/16 10:18:02;;;;;;;;;3.00;2.67;;;;;33.29;36.98;100376.25;5076802;28;46896;-71
2022/09/16 10:20:35;;;;;;;;;4.33;3.67;;;;;33.52;34.78;100384.63;5078119;28;45512;-71
2022/09/16 10:23:10;;;;;;;;;3.33;2.67;;;;;33.83;35.34;100396.97;5078344;28;45420;-74
2022/09/16 10:25:35;;;;;;;;;5.67;4.00;;;;;34.10;34.29;100374.28;5078874;27;45501;-71
2022/09/16 10:28:16;;;;;;;;;5.67;4.33;;;;;34.61;34.59;100390.50;5078383;28;46297;-72
2022/09/16 10:30:55;;;;;;;;;4.00;4.00;;;;;34.90;31.44;100390.25;5078317;28;45279;-72
2022/09/16 10:33:27;;;;;;;;;3.67;3.67;;;;;35.08;32.61;100392.53;5078275;28;45335;-72
2022/09/16 10:35:57;;;;;;;;;3.33;3.00;;;;;34.64;31.77;100384.88;5078833;28;45494;-71
2022/09/16 10:38:26;;;;;;;;;5.00;4.33;;;;;34.60;33.34;100386.09;5077329;28;48054;-71
2022/09/16 10:41:05;;;;;;;;;6.33;4.67;;;;;34.24;33.39;100376.94;5078794;28;45315;-71
2022/09/16 10:43:31;;;;;;;;;6.00;5.00;;;;;34.06;33.14;100375.50;5078184;28;45560;-72
2022/09/16 10:45:57;;;;;;;;;7.00;6.00;;;;;33.57;33.15;100365.38;5078706;28;45303;-72
2022/09/16 10:48:28;;;;;;;;;7.00;6.00;;;;;33.54;33.31;100371.00;5078170;28;46433;-72
2022/09/16 10:50:56;;;;;;;;;3.67;3.67;;;;;33.67;33.91;100380.06;5078581;27;45567;-71
2022/09/16 10:53:37;;;;;;;;;5.00;4.33;;;;;33.14;34.35;100392.66;5075665;28;45353;-73
2022/09/16 10:56:16;;;;;;;;;4.67;4.67;;;;;32.59;34.40;100391.69;5078572;28;45311;-71
2022/09/16 10:58:42;;;;;;;;;4.00;3.33;;;;;32.09;34.43;100339.88;5078614;28;45506;-73
2022/09/16 11:01:28;;;;;;;;;4.00;2.67;;;;;32.23;33.92;100382.25;5078692;28;45279;-72
2022/09/16 11:04:16;;;;;;;;;4.67;4.00;;;;;31.83;34.79;100379.31;5078560;28;45313;-73
2022/09/16 11:07:04;;;;;;;;;5.33;4.33;;;;;31.83;35.51;100385.56;5078657;28;45630;-73
2022/09/16 11:09:59;;;;;;;;;4.33;4.33;;;;;31.72;35.45;100388.06;5067177;28;45842;-72
2022/09/16 11:12:42;;;;;;;;;4.67;4.67;;;;;31.31;35.61;100378.75;5077959;27;45319;-71
2022/09/16 11:15:38;;;;;;;;;5.00;4.33;;;;;31.28;35.98;100394.28;5076983;28;45559;-72
2022/09/16 11:18:14;;;;;;;;;4.33;4.00;;;;;31.20;35.86;100375.84;5078252;27;45250;-72
2022/09/16 11:20:51;;;;;;;;;10.00;8.33;;;;;30.95;36.73;100380.91;5093699;27;45835;-71
2022/09/16 11:23:16;;;;;;;;;8.00;7.00;;;;;30.75;37.50;100384.72;5077777;28;45309;-71
2022/09/16 11:26:07;;;;;;;;;7.00;5.00;;;;;30.52;38.04;100385.06;5078184;28;45436;-71
2022/09/16 11:29:23;;;;;;;;;8.33;7.67;;;;;30.58;37.58;100383.84;5076889;28;45668;-71
2022/09/16 11:32:34;;;;;;;;;7.33;7.00;;;;;30.55;37.74;100388.53;5068070;28;46333;-71
2022/09/16 11:35:16;;;;;;;;;9.33;8.33;;;;;30.75;37.12;100371.25;5054838;28;45548;-71
2022/09/16 11:37:56;;;;;;;;;7.33;5.67;;;;;30.60;35.93;100372.97;5077374;28;45619;-71
2022/09/16 11:41:00;;;;;;;;;8.33;7.00;;;;;30.27;37.67;100366.66;5078056;28;45392;-72
2022/09/16 11:43:46;;;;;;;;;5.67;5.00;;;;;30.09;36.97;100371.22;5076027;28;48176;-71
2022/09/16 11:46:29;;;;;;;;;8.33;6.67;;;;;29.61;38.67;100372.84;5077753;28;45360;-71
2022/09/16 11:49:12;;;;;;;;;5.00;4.67;;;;;29.60;37.64;100372.91;5077536;28;45319;-73
2022/09/16 11:52:03;;;;;;;;;5.33;5.00;;;;;29.47;38.68;100357.41;5077912;28;45319;-71
2022/09/16 11:55:11;;;;;;;;;7.67;7.67;;;;;29.44;39.10;100367.47;5077547;27;46043;-71